createdAt,value
2018-02-22T00:00:58.084Z,33.88
2018-02-22T00:03:25.545Z,37.65
2018-02-22T00:05:53.013Z,34.25
2018-02-22T00:08:20.472Z,43.83
2018-02-22T00:10:47.940Z,39.20
2018-02-22T00:13:15.424Z,40.15
2018-02-22T00:15:42.888Z,38.25
2018-02-22T00:18:10.352Z,47.62
2018-02-22T00:20:37.928Z,39.45
2018-02-22T00:23:05.451Z,40.70
2018-02-22T00:25:32.904Z,44.08
2018-02-22T00:28:01.165Z,32.75
2018-02-22T00:30:28.652Z,33.33
2018-02-22T00:32:56.127Z,39.33
2018-02-22T00:35:24.489Z,44.22
2018-02-22T00:37:51.965Z,37.45
2018-02-22T00:40:19.532Z,35.90
2018-02-22T00:42:46.997Z,37.13
2018-02-22T00:45:14.462Z,39.65
2018-02-22T00:47:41.933Z,40.17
2018-02-22T00:50:09.404Z,34.35
2018-02-22T00:52:36.870Z,34.00
2018-02-22T00:55:05.171Z,40.80
2018-02-22T00:57:32.639Z,33.97
2018-02-22T01:00:00.100Z,35.22
2018-02-22T01:02:27.685Z,38.72
2018-02-22T01:04:56.657Z,32.47
2018-02-22T01:07:24.140Z,34.35
2018-02-22T01:09:51.603Z,40.85
2018-02-22T01:12:19.093Z,37.88
2018-02-22T01:14:46.663Z,42.90
2018-02-22T01:17:14.132Z,32.97
2018-02-22T01:19:41.701Z,35.90
2018-02-22T01:22:09.168Z,33.45
2018-02-22T01:24:36.744Z,39.13
2018-02-22T01:27:04.208Z,40.03
2018-02-22T01:29:31.701Z,32.33
2018-02-22T01:31:59.256Z,36.83
2018-02-22T01:34:26.719Z,32.45
2018-02-22T01:36:54.408Z,38.03
2018-02-22T01:39:21.867Z,31.02
2018-02-22T01:41:49.440Z,34.28
2018-02-22T01:44:16.908Z,38.97
2018-02-22T01:46:44.375Z,32.25
2018-02-22T01:49:11.852Z,36.22
2018-02-22T01:51:39.303Z,33.53
2018-02-22T01:54:06.787Z,38.63
2018-02-22T01:56:34.266Z,36.25
2018-02-22T01:59:01.728Z,36.88
2018-02-22T02:01:29.296Z,41.50
2018-02-22T02:03:56.769Z,35.72
2018-02-22T02:06:24.291Z,31.92
2018-02-22T02:08:51.807Z,28.90
2018-02-22T02:11:19.278Z,32.38
2018-02-22T02:13:46.747Z,40.50
2018-02-22T02:16:14.216Z,38.42
2018-02-22T02:18:41.715Z,38.20
2018-02-22T02:21:09.170Z,30.75
2018-02-22T02:23:36.729Z,37.58
2018-02-22T02:26:04.305Z,35.63
2018-02-22T02:28:31.764Z,34.50
2018-02-22T02:30:59.344Z,33.40
2018-02-22T02:33:26.916Z,37.58
2018-02-22T02:35:54.381Z,34.05
2018-02-22T02:38:21.849Z,38.30
2018-02-22T02:40:49.493Z,38.72
2018-02-22T02:43:16.996Z,38.10
2018-02-22T02:45:44.552Z,36.20
2018-02-22T02:48:12.039Z,31.02
2018-02-22T02:50:39.608Z,35.15
2018-02-22T02:53:07.180Z,35.20
2018-02-22T02:55:34.653Z,42.10
2018-02-22T02:58:02.123Z,40.12
2018-02-22T03:00:29.592Z,35.75
2018-02-22T03:02:57.064Z,33.17
2018-02-22T03:05:24.551Z,33.17
2018-02-22T03:07:52.110Z,34.83
2018-02-22T03:10:19.668Z,33.05
2018-02-22T03:12:47.240Z,40.42
2018-02-22T03:15:14.712Z,37.83
2018-02-22T03:17:42.184Z,33.50
2018-02-22T03:20:09.644Z,38.83
2018-02-22T03:22:37.225Z,30.27
2018-02-22T03:25:04.797Z,36.92
2018-02-22T03:27:32.268Z,34.00
2018-02-22T03:29:59.835Z,31.85
2018-02-22T03:32:27.358Z,39.00
2018-02-22T03:34:54.813Z,31.67
2018-02-22T03:37:23.045Z,33.88
2018-02-22T03:39:50.531Z,29.58
2018-02-22T03:42:18.006Z,33.20
2018-02-22T03:44:45.485Z,32.83
2018-02-22T03:47:13.040Z,33.28
2018-02-22T03:49:40.504Z,35.15
2018-02-22T03:52:07.974Z,38.05
2018-02-22T03:54:35.452Z,37.58
2018-02-22T03:57:03.024Z,39.20
2018-02-22T03:59:30.484Z,34.65
2018-02-22T04:01:57.948Z,33.13
2018-02-22T04:04:25.487Z,34.17
2018-02-22T04:06:53.004Z,39.35
2018-02-22T04:09:20.480Z,40.97
2018-02-22T04:11:47.939Z,34.85
2018-02-22T04:14:15.405Z,33.95
2018-02-22T04:16:42.876Z,35.10
2018-02-22T04:19:10.337Z,38.28
2018-02-22T04:21:37.808Z,38.25
2018-02-22T04:24:05.291Z,34.72
2018-02-22T04:26:32.758Z,37.08
2018-02-22T04:29:00.218Z,36.88
2018-02-22T04:31:27.684Z,31.20
2018-02-22T04:33:55.145Z,29.80
2018-02-22T04:36:22.636Z,40.95
2018-02-22T04:38:50.213Z,32.70
2018-02-22T04:41:17.675Z,33.70
2018-02-22T04:43:45.148Z,31.85
2018-02-22T04:46:12.608Z,37.40
2018-02-22T04:48:40.088Z,35.13
2018-02-22T04:51:07.548Z,32.33
2018-02-22T04:53:35.032Z,32.17
2018-02-22T04:56:02.492Z,36.33
2018-02-22T04:58:30.064Z,38.33
2018-02-22T05:00:59.156Z,39.17
2018-02-22T05:03:26.764Z,33.65
2018-02-22T05:05:54.228Z,35.15
2018-02-22T05:08:21.688Z,31.40
2018-02-22T05:10:49.255Z,35.92
2018-02-22T05:13:16.720Z,33.50
2018-02-22T05:15:44.187Z,37.95
2018-02-22T05:18:11.668Z,35.15
2018-02-22T05:20:39.241Z,40.67
2018-02-22T05:23:06.701Z,37.10
2018-02-22T05:25:34.284Z,32.63
2018-02-22T05:28:01.852Z,32.45
2018-02-22T05:30:29.311Z,34.78
2018-02-22T05:32:56.792Z,34.25
2018-02-22T05:35:24.256Z,34.42
2018-02-22T05:37:51.828Z,35.05
2018-02-22T05:40:19.288Z,33.63
2018-02-22T05:42:46.772Z,35.30
2018-02-22T05:45:14.348Z,34.25
2018-02-22T05:47:41.912Z,32.35
2018-02-22T05:53:00.517Z,41.22
2018-02-22T05:55:27.976Z,36.03
2018-02-22T05:57:55.449Z,34.85
2018-02-22T06:00:22.912Z,29.92
2018-02-22T06:02:50.404Z,34.33
2018-02-22T06:05:17.860Z,38.90
2018-02-22T06:07:45.329Z,42.72
2018-02-22T06:10:12.900Z,34.63
2018-02-22T06:12:40.367Z,36.13
2018-02-22T06:15:07.940Z,33.00
2018-02-22T06:17:35.411Z,32.05
2018-02-22T06:20:02.991Z,41.70
2018-02-22T06:22:30.456Z,40.88
2018-02-22T06:24:58.025Z,36.97
2018-02-22T06:27:25.596Z,46.17
2018-02-22T06:29:53.056Z,44.72
2018-02-22T06:32:20.552Z,35.50
2018-02-22T06:34:48.264Z,42.08
2018-02-22T06:37:15.736Z,43.25
2018-02-22T06:39:43.216Z,40.12
2018-02-22T06:42:10.719Z,44.38
2018-02-22T06:44:38.287Z,41.40
2018-02-22T06:47:05.804Z,32.22
2018-02-22T06:49:34.028Z,34.25
2018-02-22T06:52:01.521Z,39.00
2018-02-22T06:54:29.088Z,36.53
2018-02-22T06:56:56.664Z,33.70
2018-02-22T06:59:24.232Z,36.85
2018-02-22T07:01:51.704Z,34.20
2018-02-22T07:04:19.280Z,31.95
2018-02-22T07:06:46.844Z,35.47
2018-02-22T07:09:14.416Z,38.05
2018-02-22T07:11:41.888Z,33.92
2018-02-22T07:14:09.365Z,39.08
2018-02-22T07:16:36.824Z,42.33
2018-02-22T07:19:04.305Z,38.75
2018-02-22T07:21:32.537Z,35.45
2018-02-22T07:24:00.057Z,36.35
2018-02-22T07:26:27.537Z,32.65
2018-02-22T07:28:55.771Z,38.08
2018-02-22T07:31:23.279Z,36.22
2018-02-22T07:33:50.849Z,33.35
2018-02-22T07:36:18.313Z,35.97
2018-02-22T07:38:45.792Z,40.38
2018-02-22T07:41:13.359Z,35.70
2018-02-22T07:43:40.845Z,37.28
2018-02-22T07:46:08.320Z,30.60
2018-02-22T07:48:35.880Z,34.85
2018-02-22T07:51:03.443Z,37.30
2018-02-22T07:53:30.923Z,44.05
2018-02-22T07:55:58.493Z,34.78
2018-02-22T07:58:26.784Z,35.00
2018-02-22T08:00:54.268Z,35.28
2018-02-22T08:03:21.816Z,39.40
2018-02-22T08:05:49.279Z,30.35
2018-02-22T08:08:16.764Z,32.67
2018-02-22T08:10:44.240Z,43.10
2018-02-22T08:13:11.802Z,39.67
2018-02-22T08:15:39.260Z,35.63
2018-02-22T08:18:06.732Z,36.83
2018-02-22T08:20:34.315Z,35.05
2018-02-22T08:23:01.779Z,29.27
2018-02-22T08:25:29.264Z,35.08
2018-02-22T08:27:56.820Z,33.33
2018-02-22T08:30:24.492Z,32.53
2018-02-22T08:32:51.968Z,37.72
2018-02-22T08:35:19.452Z,33.60
2018-02-22T08:37:46.991Z,34.92
2018-02-22T08:40:14.577Z,37.45
2018-02-22T08:42:42.050Z,35.92
2018-02-22T08:45:09.620Z,30.60
2018-02-22T08:47:37.083Z,32.85
2018-02-22T08:50:04.548Z,35.97
2018-02-22T08:52:32.022Z,41.60
2018-02-22T08:54:59.503Z,31.73
2018-02-22T08:57:26.951Z,28.45
2018-02-22T08:59:54.424Z,33.15
2018-02-22T09:02:21.883Z,31.10
2018-02-22T09:04:49.376Z,29.27
2018-02-22T09:07:16.943Z,28.70
2018-02-22T09:09:44.523Z,31.20
2018-02-22T09:12:12.088Z,27.77
2018-02-22T09:14:39.660Z,27.83
2018-02-22T09:17:07.115Z,25.62
2018-02-22T09:19:34.576Z,24.48
2018-02-22T09:22:02.048Z,24.25
2018-02-22T09:24:29.536Z,32.35
2018-02-22T09:26:57.116Z,23.75
2018-02-22T09:29:24.892Z,25.98
2018-02-22T09:31:52.455Z,25.95
2018-02-22T09:34:19.932Z,23.52
2018-02-22T09:36:47.388Z,27.55
2018-02-22T09:39:14.864Z,24.02
2018-02-22T09:41:42.361Z,26.25
2018-02-22T09:44:09.900Z,25.40
2018-02-22T09:46:37.364Z,24.73
2018-02-22T09:49:04.849Z,26.85
2018-02-22T09:51:32.313Z,24.17
2018-02-22T09:53:59.884Z,20.42
2018-02-22T09:56:27.463Z,22.60
2018-02-22T09:58:54.916Z,25.00
2018-02-22T10:01:22.399Z,18.52
2018-02-22T10:03:49.873Z,22.17
2018-02-22T10:06:17.376Z,19.75
2018-02-22T10:08:44.907Z,18.23
2018-02-22T10:11:12.370Z,15.73
2018-02-22T10:13:39.827Z,15.52
2018-02-22T10:16:07.300Z,17.42
2018-02-22T10:18:34.755Z,17.42
2018-02-22T10:21:02.233Z,16.48
2018-02-22T10:23:29.689Z,16.02
2018-02-22T10:25:57.198Z,14.43
2018-02-22T10:28:24.768Z,15.13
2018-02-22T10:30:52.224Z,10.57
2018-02-22T10:33:19.705Z,12.45
2018-02-22T10:35:47.159Z,14.10
2018-02-22T10:38:14.644Z,13.85
2018-02-22T10:40:42.101Z,14.20
2018-02-22T10:43:09.585Z,13.07
2018-02-22T10:45:37.057Z,11.55
2018-02-22T10:48:04.624Z,13.30
2018-02-22T10:50:32.076Z,15.65
2018-02-22T10:52:59.568Z,13.93
2018-02-22T10:55:27.028Z,12.70
2018-02-22T10:57:54.486Z,10.45
2018-02-22T11:00:27.707Z,11.65
2018-02-22T11:02:55.164Z,14.02
2018-02-22T11:05:22.644Z,16.45
2018-02-22T11:07:50.109Z,14.87
2018-02-22T11:10:17.572Z,11.25
2018-02-22T11:12:45.029Z,11.23
2018-02-22T11:15:12.517Z,10.45
2018-02-22T11:17:39.988Z,13.50
2018-02-22T11:20:07.458Z,12.35
2018-02-22T11:22:34.924Z,14.30
2018-02-22T11:25:02.396Z,16.65
2018-02-22T11:27:29.854Z,16.00
2018-02-22T11:29:57.332Z,13.48
2018-02-22T11:32:24.806Z,12.05
2018-02-22T11:34:52.259Z,11.18
2018-02-22T11:37:19.746Z,11.65
2018-02-22T11:39:47.213Z,14.30
2018-02-22T11:42:14.677Z,13.07
2018-02-22T12:01:54.433Z,14.90
2018-02-22T12:06:48.937Z,14.82
2018-02-22T12:09:16.444Z,14.70
2018-02-22T12:11:45.425Z,14.30
2018-02-22T12:14:12.912Z,15.13
2018-02-22T12:16:40.484Z,15.40
2018-02-22T12:19:08.067Z,14.00
2018-02-22T12:21:35.625Z,12.63
2018-02-22T12:24:03.112Z,12.10
2018-02-22T12:26:30.587Z,15.57
2018-02-22T12:28:58.077Z,16.60
2018-02-22T12:31:26.328Z,16.43
2018-02-22T12:33:53.906Z,13.80
2018-02-22T12:36:21.481Z,12.63
2018-02-22T12:38:48.948Z,14.17
2018-02-22T12:41:16.412Z,12.83
2018-02-22T12:43:43.981Z,15.47
2018-02-22T12:46:11.446Z,12.00
2018-02-22T12:48:38.915Z,15.60
2018-02-22T12:51:06.438Z,15.90
2018-02-22T12:53:34.680Z,14.97
2018-02-22T12:56:03.688Z,16.13
2018-02-22T12:58:31.157Z,15.70
2018-02-22T13:00:58.650Z,15.30
2018-02-22T13:03:26.882Z,17.13
2018-02-22T13:05:54.348Z,16.97
2018-02-22T13:08:21.825Z,20.17
2018-02-22T13:10:49.296Z,16.80
2018-02-22T13:13:16.794Z,17.40
2018-02-22T13:15:44.359Z,16.00
2018-02-22T13:18:11.830Z,17.47
2018-02-22T13:20:39.320Z,18.10
2018-02-22T13:23:07.585Z,17.73
2018-02-22T13:25:35.047Z,19.17
2018-02-22T13:28:02.536Z,19.30
2018-02-22T13:30:30.014Z,19.53
2018-02-22T13:33:09.371Z,23.37
2018-02-22T13:35:37.637Z,23.60
2018-02-22T13:38:17.795Z,21.47
2018-02-22T13:40:45.261Z,22.07
2018-02-22T13:43:12.738Z,20.70
2018-02-22T13:45:40.207Z,21.07
2018-02-22T13:48:07.783Z,23.63
2018-02-22T13:50:47.339Z,21.20
2018-02-22T13:53:14.812Z,20.40
2018-02-22T13:55:42.275Z,21.80
2018-02-22T13:58:09.839Z,20.47
2018-02-22T14:00:49.299Z,20.40
2018-02-22T14:03:16.766Z,22.40
2018-02-22T14:05:44.225Z,20.27
2018-02-22T14:08:23.691Z,19.67
2018-02-22T14:10:51.146Z,19.30
2018-02-22T14:13:18.624Z,18.10
2018-02-22T14:15:46.194Z,19.80
2018-02-22T14:18:13.680Z,17.57
2018-02-22T14:20:41.236Z,21.33
2018-02-22T14:23:08.704Z,20.10
2018-02-22T14:25:36.169Z,18.33
2018-02-22T14:28:03.644Z,19.10
2018-02-22T14:30:31.113Z,16.87
2018-02-22T14:32:58.587Z,17.47
2018-02-22T14:35:26.156Z,18.67
2018-02-22T14:37:53.728Z,18.57
2018-02-22T14:40:21.309Z,17.10
2018-02-22T14:42:48.772Z,18.67
2018-02-22T14:45:16.255Z,16.10
2018-02-22T14:47:43.727Z,18.97
2018-02-22T14:50:11.276Z,13.90
2018-02-22T14:52:38.852Z,14.40
2018-02-22T14:55:06.339Z,16.07
2018-02-22T14:57:33.815Z,16.90
2018-02-22T15:00:01.293Z,16.70
2018-02-22T15:02:29.566Z,19.13
2018-02-22T15:04:57.029Z,18.03
2018-02-22T15:07:24.508Z,15.93
2018-02-22T15:09:52.096Z,16.27
2018-02-22T15:12:20.448Z,18.40
2018-02-22T15:14:48.032Z,16.97
2018-02-22T15:17:15.505Z,17.03
2018-02-22T15:19:43.065Z,18.37
2018-02-22T15:22:10.620Z,19.80
2018-02-22T15:24:38.085Z,19.67
2018-02-22T15:27:05.576Z,19.70
2018-02-22T15:29:33.882Z,21.40
2018-02-22T15:32:04.044Z,21.10
2018-02-22T15:34:31.977Z,21.20
2018-02-22T15:42:40.913Z,19.63
2018-02-22T15:45:09.169Z,18.47
2018-02-22T15:47:36.741Z,18.50
2018-02-22T15:50:04.308Z,15.50
2018-02-22T15:52:31.996Z,22.17
2018-02-22T15:54:59.587Z,19.10
2018-02-22T15:57:27.156Z,18.20
2018-02-22T15:59:55.391Z,17.07
2018-02-22T16:02:22.884Z,17.50
2018-02-22T16:04:50.460Z,18.30
2018-02-22T16:07:18.037Z,15.77
2018-02-22T16:09:45.600Z,16.63
2018-02-22T16:12:13.079Z,18.03
2018-02-22T16:17:31.356Z,17.67
2018-02-22T16:19:58.852Z,21.63
2018-02-22T16:22:27.148Z,17.67
2018-02-22T16:24:55.408Z,20.90
2018-02-22T16:27:22.976Z,15.23
2018-02-22T16:29:50.548Z,19.75
2018-02-22T16:32:18.025Z,23.58
2018-02-22T16:34:45.506Z,20.27
2018-02-22T16:37:12.964Z,20.25
2018-02-22T16:39:40.428Z,23.20
2018-02-22T16:42:07.914Z,19.42
2018-02-22T16:44:35.387Z,24.90
2018-02-22T16:47:02.850Z,21.80
2018-02-22T16:49:30.320Z,23.65
2018-02-22T16:51:57.781Z,21.75
2018-02-22T16:54:25.376Z,20.98
2018-02-22T16:56:53.602Z,24.58
2018-02-22T17:05:03.880Z,36.13
2018-02-22T17:07:31.444Z,49.00
2018-02-22T17:09:58.930Z,23.90
2018-02-22T17:12:26.485Z,28.85
2018-02-22T17:14:53.948Z,24.37
2018-02-22T17:20:21.343Z,26.62
2018-02-22T17:22:48.826Z,32.70
2018-02-22T17:25:15.796Z,31.55
2018-02-22T17:27:49.096Z,43.22
2018-02-22T17:30:22.550Z,29.15
2018-02-22T17:32:50.067Z,32.63
2018-02-22T17:35:36.277Z,39.60
2018-02-22T17:38:06.619Z,42.45
2018-02-22T17:40:55.009Z,37.83
2018-02-22T17:43:23.227Z,76.30
2018-02-22T17:45:50.694Z,47.00
2018-02-22T17:48:18.144Z,41.88
2018-02-22T17:50:46.388Z,32.95
2018-02-22T17:53:13.842Z,34.67
2018-02-22T17:55:41.316Z,38.95
2018-02-22T17:58:08.780Z,36.45
2018-02-22T18:00:36.244Z,38.15
2018-02-22T18:03:03.714Z,32.85
2018-02-22T18:05:31.186Z,37.05
2018-02-22T18:07:58.649Z,41.67
2018-02-22T18:10:26.125Z,41.55
2018-02-22T18:12:53.589Z,43.80
2018-02-22T18:15:21.045Z,38.78
2018-02-22T18:17:48.566Z,30.80
2018-02-22T18:20:15.991Z,32.28
2018-02-22T18:22:43.447Z,33.55
2018-02-22T18:25:10.923Z,29.95
2018-02-22T18:27:38.442Z,29.63
2018-02-22T18:30:05.905Z,34.88
2018-02-22T18:32:33.373Z,38.28
2018-02-22T18:35:00.838Z,32.28
2018-02-22T18:37:34.131Z,37.30
2018-02-22T18:40:07.360Z,37.20
2018-02-22T18:42:34.844Z,36.53
2018-02-22T18:45:07.984Z,33.15
2018-02-22T18:47:35.457Z,31.58
2018-02-22T18:50:02.930Z,33.33
2018-02-22T18:52:30.445Z,33.28
2018-02-22T18:54:57.912Z,33.63
2018-02-22T18:57:25.486Z,33.88
2018-02-22T18:59:52.964Z,47.10
2018-02-22T19:02:20.520Z,38.53
2018-02-22T19:04:47.982Z,36.95
2018-02-22T19:07:15.565Z,36.55
2018-02-22T19:09:43.023Z,38.67
2018-02-22T19:12:10.502Z,35.90
2018-02-22T19:14:38.070Z,32.35
2018-02-22T19:19:56.351Z,33.33
2018-02-22T19:22:23.832Z,38.67
2018-02-22T19:24:51.290Z,39.13
2018-02-22T19:27:18.772Z,42.53
2018-02-22T19:29:46.256Z,41.70
2018-02-22T19:32:13.804Z,44.90
2018-02-22T19:34:41.261Z,45.30
2018-02-22T19:37:08.728Z,42.00
2018-02-22T19:39:36.223Z,45.60
2018-02-22T19:42:03.678Z,43.25
2018-02-22T19:44:31.183Z,44.97
2018-02-22T19:46:59.407Z,39.88
2018-02-22T19:49:31.618Z,35.75
2018-02-22T19:52:12.001Z,39.17
2018-02-22T19:54:39.572Z,46.13
2018-02-22T19:57:07.087Z,41.42
2018-02-22T19:59:34.540Z,44.72
2018-02-22T20:02:02.761Z,40.67
2018-02-22T20:04:30.235Z,34.72
2018-02-22T20:06:57.742Z,37.47
2018-02-22T20:09:25.301Z,42.13
2018-02-22T20:11:52.904Z,40.17
2018-02-22T20:14:20.395Z,29.45
2018-02-22T20:16:48.618Z,37.53
2018-02-22T20:19:16.139Z,36.63
2018-02-22T20:21:43.574Z,37.13
2018-02-22T20:24:11.032Z,36.13
2018-02-22T20:26:38.497Z,32.50
2018-02-22T20:29:06.003Z,31.25
2018-02-22T20:31:33.467Z,41.90
2018-02-22T20:34:01.021Z,37.63
2018-02-22T20:36:28.493Z,37.45
2018-02-22T20:41:46.592Z,41.22
2018-02-22T20:44:14.069Z,45.25
2018-02-22T20:46:41.617Z,38.85
2018-02-22T20:49:09.097Z,36.50
2018-02-22T20:51:40.448Z,45.17
2018-02-22T20:54:07.904Z,46.13
2018-02-22T20:56:35.376Z,35.42
2018-02-22T20:59:02.863Z,36.33
2018-02-22T21:01:30.376Z,35.08
2018-02-22T21:03:58.597Z,46.80
2018-02-22T21:06:27.000Z,35.85
2018-02-22T21:08:54.474Z,31.27
2018-02-22T21:11:21.948Z,34.25
2018-02-22T21:13:49.412Z,38.67
2018-02-22T21:16:16.867Z,37.35
2018-02-22T21:18:44.336Z,36.25
2018-02-22T21:21:11.804Z,36.45
2018-02-22T21:23:39.295Z,41.45
2018-02-22T21:26:06.784Z,49.10
2018-02-22T21:31:25.345Z,36.22
2018-02-22T21:33:52.818Z,41.65
2018-02-22T21:36:20.303Z,33.85
2018-02-22T21:38:47.769Z,35.08
2018-02-22T21:41:15.336Z,36.10
2018-02-22T21:43:42.909Z,36.05
2018-02-22T21:46:10.376Z,38.92
2018-02-22T21:48:37.841Z,34.15
2018-02-22T21:51:05.320Z,30.62
2018-02-22T21:53:32.790Z,31.23
2018-02-22T21:56:00.272Z,37.78
2018-02-22T21:58:27.727Z,35.90
2018-02-22T22:00:55.200Z,30.48
2018-02-22T22:03:22.773Z,34.72
2018-02-22T22:05:50.264Z,30.55
2018-02-22T22:08:18.502Z,31.12
2018-02-22T22:10:46.005Z,35.42
2018-02-22T22:13:13.565Z,33.33
2018-02-22T22:15:41.143Z,31.70
2018-02-22T22:18:08.608Z,33.30
2018-02-22T22:20:36.083Z,30.23
2018-02-22T22:23:03.652Z,34.85
2018-02-22T22:25:31.235Z,36.13
2018-02-22T22:27:59.892Z,36.22
2018-02-22T22:30:27.380Z,28.20
2018-02-22T22:32:54.841Z,41.08
2018-02-22T22:35:22.328Z,30.62
2018-02-22T22:37:49.807Z,26.98
2018-02-22T22:40:17.258Z,29.98
2018-02-22T22:42:44.735Z,29.90
2018-02-22T22:48:03.564Z,26.87
2018-02-22T22:50:31.830Z,35.85
2018-02-22T22:53:00.153Z,24.50
2018-02-22T22:55:28.398Z,28.60
2018-02-22T22:57:55.963Z,30.08
2018-02-22T23:00:23.431Z,26.77
2018-02-22T23:02:50.920Z,26.60
2018-02-22T23:05:18.498Z,27.95
2018-02-22T23:07:45.957Z,25.12
2018-02-22T23:10:13.526Z,22.83
2018-02-22T23:12:40.984Z,26.58
2018-02-22T23:15:08.452Z,24.42
2018-02-22T23:17:35.923Z,25.27
2018-02-22T23:20:03.497Z,25.05
2018-02-22T23:22:31.096Z,20.95
2018-02-22T23:24:58.561Z,25.65
2018-02-22T23:27:26.212Z,20.85
2018-02-22T23:29:53.679Z,26.23
2018-02-22T23:32:21.145Z,26.83
2018-02-22T23:34:48.609Z,21.15
2018-02-22T23:37:16.064Z,26.75
2018-02-22T23:39:43.528Z,28.95
2018-02-22T23:42:25.867Z,23.67
2018-02-22T23:44:53.350Z,22.15
2018-02-22T23:47:20.856Z,26.95
2018-02-22T23:49:49.078Z,23.08
2018-02-22T23:52:16.535Z,24.20
2018-02-22T23:54:44.006Z,27.23
2018-02-22T23:57:11.460Z,26.23
2018-02-22T23:59:38.938Z,20.30
